sensor_id;sensor_type;location;lat;lon;timestamp;P1;durP1;ratioP1;P2;durP2;ratioP2
25988;SDS011;13778;48.236;9.894;2023-05-07T00:00:12;7.15;;;5.50;;
25988;SDS011;13778;48.236;9.894;2023-05-07T00:03:04;5.80;;;5.20;;
25988;SDS011;13778;48.236;9.894;2023-05-07T00:05:55;17.17;;;13.77;;
25988;SDS011;13778;48.236;9.894;2023-05-07T00:08:46;21.40;;;15.63;;
25988;SDS011;13778;48.236;9.894;2023-05-07T00:11:36;11.35;;;8.23;;
25988;SDS011;13778;48.236;9.894;2023-05-07T00:14:26;7.80;;;6.60;;
25988;SDS011;13778;48.236;9.894;2023-05-07T00:17:18;7.13;;;6.38;;
25988;SDS011;13778;48.236;9.894;2023-05-07T00:20:09;6.28;;;5.57;;
25988;SDS011;13778;48.236;9.894;2023-05-07T00:23:00;8.95;;;5.78;;
25988;SDS011;13778;48.236;9.894;2023-05-07T00:25:50;7.45;;;5.95;;
25988;SDS011;13778;48.236;9.894;2023-05-07T00:28:41;7.40;;;5.90;;
25988;SDS011;13778;48.236;9.894;2023-05-07T00:31:31;7.82;;;5.85;;
25988;SDS011;13778;48.236;9.894;2023-05-07T00:34:23;6.47;;;5.70;;
25988;SDS011;13778;48.236;9.894;2023-05-07T00:40:04;6.30;;;4.80;;
25988;SDS011;13778;48.236;9.894;2023-05-07T00:42:56;7.45;;;5.35;;
25988;SDS011;13778;48.236;9.894;2023-05-07T00:45:49;7.78;;;5.43;;
25988;SDS011;13778;48.236;9.894;2023-05-07T00:48:39;7.55;;;5.13;;
25988;SDS011;13778;48.236;9.894;2023-05-07T00:51:31;6.50;;;4.93;;
25988;SDS011;13778;48.236;9.894;2023-05-07T00:54:22;11.68;;;5.60;;
25988;SDS011;13778;48.236;9.894;2023-05-07T00:57:12;5.50;;;5.00;;
25988;SDS011;13778;48.236;9.894;2023-05-07T01:00:03;10.82;;;5.20;;
25988;SDS011;13778;48.236;9.894;2023-05-07T01:02:54;5.18;;;4.68;;
25988;SDS011;13778;48.236;9.894;2023-05-07T01:05:44;7.55;;;5.05;;
25988;SDS011;13778;48.236;9.894;2023-05-07T01:08:37;6.95;;;5.47;;
25988;SDS011;13778;48.236;9.894;2023-05-07T01:11:28;6.40;;;4.85;;
25988;SDS011;13778;48.236;9.894;2023-05-07T01:14:19;6.32;;;5.72;;
25988;SDS011;13778;48.236;9.894;2023-05-07T01:17:10;7.30;;;6.00;;
25988;SDS011;13778;48.236;9.894;2023-05-07T01:20:01;8.43;;;5.35;;
25988;SDS011;13778;48.236;9.894;2023-05-07T01:22:52;8.20;;;5.85;;
25988;SDS011;13778;48.236;9.894;2023-05-07T01:28:33;7.72;;;5.88;;
25988;SDS011;13778;48.236;9.894;2023-05-07T01:31:24;10.40;;;6.00;;
25988;SDS011;13778;48.236;9.894;2023-05-07T01:34:15;7.35;;;6.38;;
25988;SDS011;13778;48.236;9.894;2023-05-07T01:37:07;6.75;;;6.10;;
25988;SDS011;13778;48.236;9.894;2023-05-07T01:39:59;8.18;;;6.38;;
25988;SDS011;13778;48.236;9.894;2023-05-07T01:42:51;9.73;;;6.10;;
25988;SDS011;13778;48.236;9.894;2023-05-07T01:45:42;7.40;;;6.30;;
25988;SDS011;13778;48.236;9.894;2023-05-07T01:48:33;7.07;;;6.38;;
25988;SDS011;13778;48.236;9.894;2023-05-07T01:51:24;7.22;;;6.53;;
25988;SDS011;13778;48.236;9.894;2023-05-07T01:54:15;10.52;;;7.30;;
25988;SDS011;13778;48.236;9.894;2023-05-07T01:57:07;8.50;;;7.45;;
25988;SDS011;13778;48.236;9.894;2023-05-07T01:59:57;9.82;;;6.32;;
25988;SDS011;13778;48.236;9.894;2023-05-07T02:02:48;7.70;;;6.07;;
25988;SDS011;13778;48.236;9.894;2023-05-07T02:05:38;9.80;;;6.63;;
25988;SDS011;13778;48.236;9.894;2023-05-07T02:08:29;7.72;;;6.60;;
25988;SDS011;13778;48.236;9.894;2023-05-07T02:11:20;10.40;;;7.83;;
25988;SDS011;13778;48.236;9.894;2023-05-07T02:14:12;8.93;;;7.85;;
25988;SDS011;13778;48.236;9.894;2023-05-07T02:17:02;8.68;;;7.45;;
25988;SDS011;13778;48.236;9.894;2023-05-07T02:19:53;9.13;;;7.60;;
25988;SDS011;13778;48.236;9.894;2023-05-07T02:22:43;8.10;;;6.95;;
25988;SDS011;13778;48.236;9.894;2023-05-07T02:25:33;11.98;;;7.93;;
25988;SDS011;13778;48.236;9.894;2023-05-07T02:28:24;7.80;;;6.78;;
25988;SDS011;13778;48.236;9.894;2023-05-07T02:31:16;8.25;;;7.25;;
25988;SDS011;13778;48.236;9.894;2023-05-07T02:34:06;9.85;;;7.38;;
25988;SDS011;13778;48.236;9.894;2023-05-07T02:36:57;9.68;;;8.43;;
25988;SDS011;13778;48.236;9.894;2023-05-07T02:39:47;13.45;;;8.18;;
25988;SDS011;13778;48.236;9.894;2023-05-07T02:42:38;9.88;;;7.97;;
25988;SDS011;13778;48.236;9.894;2023-05-07T02:45:28;10.40;;;7.55;;
25988;SDS011;13778;48.236;9.894;2023-05-07T02:48:20;8.88;;;7.70;;
25988;SDS011;13778;48.236;9.894;2023-05-07T02:54:00;11.30;;;8.50;;
25988;SDS011;13778;48.236;9.894;2023-05-07T02:56:51;8.77;;;7.70;;
25988;SDS011;13778;48.236;9.894;2023-05-07T02:59:41;8.55;;;7.72;;
25988;SDS011;13778;48.236;9.894;2023-05-07T03:02:32;9.98;;;7.35;;
25988;SDS011;13778;48.236;9.894;2023-05-07T03:05:24;10.23;;;7.70;;
25988;SDS011;13778;48.236;9.894;2023-05-07T03:08:14;8.50;;;7.55;;
25988;SDS011;13778;48.236;9.894;2023-05-07T03:11:05;8.93;;;8.02;;
25988;SDS011;13778;48.236;9.894;2023-05-07T03:13:55;8.18;;;7.38;;
25988;SDS011;13778;48.236;9.894;2023-05-07T03:16:46;9.13;;;7.55;;
25988;SDS011;13778;48.236;9.894;2023-05-07T03:19:36;9.77;;;7.57;;
25988;SDS011;13778;48.236;9.894;2023-05-07T03:22:28;8.68;;;7.10;;
25988;SDS011;13778;48.236;9.894;2023-05-07T03:28:09;8.10;;;7.18;;
25988;SDS011;13778;48.236;9.894;2023-05-07T03:30:59;10.88;;;7.78;;
25988;SDS011;13778;48.236;9.894;2023-05-07T03:33:50;10.73;;;7.85;;
25988;SDS011;13778;48.236;9.894;2023-05-07T03:36:41;10.43;;;8.02;;
25988;SDS011;13778;48.236;9.894;2023-05-07T03:39:33;9.82;;;7.78;;
25988;SDS011;13778;48.236;9.894;2023-05-07T03:42:23;10.02;;;7.88;;
25988;SDS011;13778;48.236;9.894;2023-05-07T03:45:14;9.48;;;7.78;;
25988;SDS011;13778;48.236;9.894;2023-05-07T03:48:04;9.75;;;7.72;;
25988;SDS011;13778;48.236;9.894;2023-05-07T03:50:55;7.65;;;6.85;;
25988;SDS011;13778;48.236;9.894;2023-05-07T03:53:45;8.32;;;7.53;;
25988;SDS011;13778;48.236;9.894;2023-05-07T03:56:37;12.18;;;7.53;;
25988;SDS011;13778;48.236;9.894;2023-05-07T03:59:28;8.55;;;7.20;;
25988;SDS011;13778;48.236;9.894;2023-05-07T04:02:18;8.95;;;7.30;;
25988;SDS011;13778;48.236;9.894;2023-05-07T04:05:09;10.23;;;7.63;;
25988;SDS011;13778;48.236;9.894;2023-05-07T04:07:59;8.13;;;7.20;;
25988;SDS011;13778;48.236;9.894;2023-05-07T04:10:54;11.07;;;7.47;;
25988;SDS011;13778;48.236;9.894;2023-05-07T04:13:45;8.68;;;6.82;;
25988;SDS011;13778;48.236;9.894;2023-05-07T04:16:36;6.78;;;6.05;;
25988;SDS011;13778;48.236;9.894;2023-05-07T04:19:27;7.35;;;6.65;;
25988;SDS011;13778;48.236;9.894;2023-05-07T04:22:17;9.40;;;6.30;;
25988;SDS011;13778;48.236;9.894;2023-05-07T04:25:08;7.95;;;5.57;;
25988;SDS011;13778;48.236;9.894;2023-05-07T04:27:59;11.65;;;6.88;;
25988;SDS011;13778;48.236;9.894;2023-05-07T04:30:51;6.78;;;6.10;;
25988;SDS011;13778;48.236;9.894;2023-05-07T04:36:31;6.28;;;5.68;;
25988;SDS011;13778;48.236;9.894;2023-05-07T04:39:22;7.72;;;6.35;;
25988;SDS011;13778;48.236;9.894;2023-05-07T04:42:14;32.63;;;21.05;;
25988;SDS011;13778;48.236;9.894;2023-05-07T04:45:05;27.20;;;18.48;;
25988;SDS011;13778;48.236;9.894;2023-05-07T04:47:57;22.38;;;15.27;;
25988;SDS011;13778;48.236;9.894;2023-05-07T04:50:47;15.90;;;11.43;;
25988;SDS011;13778;48.236;9.894;2023-05-07T04:53:38;11.00;;;8.67;;
25988;SDS011;13778;48.236;9.894;2023-05-07T04:56:29;7.55;;;6.85;;
25988;SDS011;13778;48.236;9.894;2023-05-07T04:59:19;10.13;;;6.50;;
25988;SDS011;13778;48.236;9.894;2023-05-07T05:02:10;7.25;;;6.47;;
25988;SDS011;13778;48.236;9.894;2023-05-07T05:05:02;9.70;;;6.97;;
25988;SDS011;13778;48.236;9.894;2023-05-07T05:07:52;9.27;;;7.30;;
25988;SDS011;13778;48.236;9.894;2023-05-07T05:10:43;8.88;;;7.35;;
25988;SDS011;13778;48.236;9.894;2023-05-07T05:13:33;9.10;;;7.32;;
25988;SDS011;13778;48.236;9.894;2023-05-07T05:16:24;7.72;;;6.97;;
25988;SDS011;13778;48.236;9.894;2023-05-07T05:19:15;8.85;;;7.32;;
25988;SDS011;13778;48.236;9.894;2023-05-07T05:22:07;10.13;;;7.00;;
25988;SDS011;13778;48.236;9.894;2023-05-07T05:24:57;12.60;;;7.22;;
25988;SDS011;13778;48.236;9.894;2023-05-07T05:27:48;7.60;;;6.53;;
25988;SDS011;13778;48.236;9.894;2023-05-07T05:30:38;11.10;;;7.47;;
25988;SDS011;13778;48.236;9.894;2023-05-07T05:33:29;7.50;;;6.75;;
25988;SDS011;13778;48.236;9.894;2023-05-07T05:36:19;7.97;;;7.18;;
25988;SDS011;13778;48.236;9.894;2023-05-07T05:39:11;7.40;;;6.68;;
25988;SDS011;13778;48.236;9.894;2023-05-07T05:42:02;8.57;;;6.70;;
25988;SDS011;13778;48.236;9.894;2023-05-07T05:44:52;11.75;;;7.47;;
25988;SDS011;13778;48.236;9.894;2023-05-07T05:47:43;9.82;;;6.95;;
25988;SDS011;13778;48.236;9.894;2023-05-07T05:50:34;7.57;;;6.85;;
25988;SDS011;13778;48.236;9.894;2023-05-07T05:53:25;13.13;;;7.10;;
25988;SDS011;13778;48.236;9.894;2023-05-07T05:56:17;9.23;;;6.72;;
25988;SDS011;13778;48.236;9.894;2023-05-07T05:59:08;10.30;;;6.82;;
25988;SDS011;13778;48.236;9.894;2023-05-07T06:01:59;8.30;;;7.50;;
25988;SDS011;13778;48.236;9.894;2023-05-07T06:04:49;8.52;;;6.53;;
25988;SDS011;13778;48.236;9.894;2023-05-07T06:07:40;7.50;;;6.28;;
25988;SDS011;13778;48.236;9.894;2023-05-07T06:10:30;10.85;;;7.43;;
25988;SDS011;13778;48.236;9.894;2023-05-07T06:13:22;7.15;;;6.47;;
25988;SDS011;13778;48.236;9.894;2023-05-07T06:16:12;9.45;;;6.60;;
25988;SDS011;13778;48.236;9.894;2023-05-07T06:19:02;7.43;;;6.68;;
25988;SDS011;13778;48.236;9.894;2023-05-07T06:21:53;10.00;;;7.45;;
25988;SDS011;13778;48.236;9.894;2023-05-07T06:24:45;8.07;;;7.28;;
25988;SDS011;13778;48.236;9.894;2023-05-07T06:27:35;7.57;;;6.85;;
25988;SDS011;13778;48.236;9.894;2023-05-07T06:30:27;9.65;;;7.18;;
25988;SDS011;13778;48.236;9.894;2023-05-07T06:33:18;10.20;;;6.53;;
25988;SDS011;13778;48.236;9.894;2023-05-07T06:36:08;12.60;;;6.95;;
25988;SDS011;13778;48.236;9.894;2023-05-07T06:38:59;8.25;;;7.40;;
25988;SDS011;13778;48.236;9.894;2023-05-07T06:41:49;7.00;;;6.43;;
25988;SDS011;13778;48.236;9.894;2023-05-07T06:44:40;9.73;;;6.80;;
25988;SDS011;13778;48.236;9.894;2023-05-07T06:47:32;8.70;;;7.90;;
25988;SDS011;13778;48.236;9.894;2023-05-07T06:53:12;9.15;;;6.82;;
25988;SDS011;13778;48.236;9.894;2023-05-07T06:56:03;8.25;;;7.50;;
25988;SDS011;13778;48.236;9.894;2023-05-07T06:58:53;11.30;;;8.15;;
25988;SDS011;13778;48.236;9.894;2023-05-07T07:01:43;7.57;;;6.75;;
25988;SDS011;13778;48.236;9.894;2023-05-07T07:04:35;8.35;;;7.43;;
25988;SDS011;13778;48.236;9.894;2023-05-07T07:10:16;9.00;;;6.53;;
25988;SDS011;13778;48.236;9.894;2023-05-07T07:13:06;8.55;;;6.78;;
25988;SDS011;13778;48.236;9.894;2023-05-07T07:15:57;8.25;;;7.45;;
25988;SDS011;13778;48.236;9.894;2023-05-07T07:18:47;7.82;;;6.88;;
25988;SDS011;13778;48.236;9.894;2023-05-07T07:21:39;8.55;;;7.65;;
25988;SDS011;13778;48.236;9.894;2023-05-07T07:27:20;11.52;;;7.68;;
25988;SDS011;13778;48.236;9.894;2023-05-07T07:30:10;9.25;;;7.32;;
25988;SDS011;13778;48.236;9.894;2023-05-07T07:33:01;7.95;;;7.15;;
25988;SDS011;13778;48.236;9.894;2023-05-07T07:35:52;7.93;;;7.23;;
25988;SDS011;13778;48.236;9.894;2023-05-07T07:38:43;8.40;;;7.53;;
25988;SDS011;13778;48.236;9.894;2023-05-07T07:41:34;8.32;;;6.97;;
25988;SDS011;13778;48.236;9.894;2023-05-07T07:44:24;9.75;;;7.72;;
25988;SDS011;13778;48.236;9.894;2023-05-07T07:47:15;7.13;;;6.53;;
25988;SDS011;13778;48.236;9.894;2023-05-07T07:50:06;7.50;;;6.45;;
25988;SDS011;13778;48.236;9.894;2023-05-07T07:52:57;6.57;;;6.05;;
25988;SDS011;13778;48.236;9.894;2023-05-07T07:55:49;7.45;;;6.55;;
25988;SDS011;13778;48.236;9.894;2023-05-07T07:58:39;7.32;;;6.70;;
25988;SDS011;13778;48.236;9.894;2023-05-07T08:01:30;8.05;;;6.97;;
25988;SDS011;13778;48.236;9.894;2023-05-07T08:04:20;7.40;;;6.70;;
25988;SDS011;13778;48.236;9.894;2023-05-07T08:07:11;6.97;;;6.15;;
25988;SDS011;13778;48.236;9.894;2023-05-07T08:10:01;10.40;;;7.18;;
25988;SDS011;13778;48.236;9.894;2023-05-07T08:12:53;7.68;;;5.55;;
25988;SDS011;13778;48.236;9.894;2023-05-07T08:15:44;7.63;;;6.85;;
25988;SDS011;13778;48.236;9.894;2023-05-07T08:18:34;9.02;;;6.85;;
25988;SDS011;13778;48.236;9.894;2023-05-07T08:21:25;7.18;;;6.20;;
25988;SDS011;13778;48.236;9.894;2023-05-07T08:24:15;7.97;;;5.75;;
25988;SDS011;13778;48.236;9.894;2023-05-07T08:27:06;14.20;;;6.55;;
25988;SDS011;13778;48.236;9.894;2023-05-07T08:29:57;7.45;;;6.45;;
25988;SDS011;13778;48.236;9.894;2023-05-07T08:35:38;5.30;;;4.82;;
25988;SDS011;13778;48.236;9.894;2023-05-07T08:38:29;6.57;;;5.75;;
25988;SDS011;13778;48.236;9.894;2023-05-07T08:41:19;5.68;;;5.18;;
25988;SDS011;13778;48.236;9.894;2023-05-07T08:44:11;5.23;;;4.67;;
25988;SDS011;13778;48.236;9.894;2023-05-07T08:47:03;6.68;;;4.88;;
25988;SDS011;13778;48.236;9.894;2023-05-07T08:49:56;5.13;;;4.72;;
25988;SDS011;13778;48.236;9.894;2023-05-07T08:52:47;9.00;;;5.70;;
25988;SDS011;13778;48.236;9.894;2023-05-07T08:55:38;7.38;;;4.90;;
25988;SDS011;13778;48.236;9.894;2023-05-07T08:58:28;7.32;;;5.18;;
25988;SDS011;13778;48.236;9.894;2023-05-07T09:01:19;7.47;;;4.97;;
25988;SDS011;13778;48.236;9.894;2023-05-07T09:04:11;5.82;;;5.22;;
25988;SDS011;13778;48.236;9.894;2023-05-07T09:07:02;4.85;;;4.45;;
25988;SDS011;13778;48.236;9.894;2023-05-07T09:09:54;8.07;;;4.78;;
25988;SDS011;13778;48.236;9.894;2023-05-07T09:15:36;6.45;;;4.68;;
25988;SDS011;13778;48.236;9.894;2023-05-07T09:18:26;6.32;;;4.97;;
25988;SDS011;13778;48.236;9.894;2023-05-07T09:21:19;5.47;;;4.97;;
25988;SDS011;13778;48.236;9.894;2023-05-07T09:24:09;5.40;;;4.90;;
25988;SDS011;13778;48.236;9.894;2023-05-07T09:27:00;5.07;;;4.50;;
25988;SDS011;13778;48.236;9.894;2023-05-07T09:29:51;6.88;;;5.15;;
25988;SDS011;13778;48.236;9.894;2023-05-07T09:32:42;5.15;;;4.10;;
25988;SDS011;13778;48.236;9.894;2023-05-07T09:35:32;8.65;;;4.28;;
25988;SDS011;13778;48.236;9.894;2023-05-07T09:38:24;5.07;;;4.20;;
25988;SDS011;13778;48.236;9.894;2023-05-07T09:41:17;9.32;;;4.85;;
25988;SDS011;13778;48.236;9.894;2023-05-07T09:44:09;5.28;;;3.88;;
25988;SDS011;13778;48.236;9.894;2023-05-07T09:47:00;4.25;;;3.85;;
25988;SDS011;13778;48.236;9.894;2023-05-07T09:49:52;5.05;;;3.78;;
25988;SDS011;13778;48.236;9.894;2023-05-07T09:52:45;5.50;;;4.25;;
25988;SDS011;13778;48.236;9.894;2023-05-07T09:55:37;5.30;;;3.70;;
25988;SDS011;13778;48.236;9.894;2023-05-07T09:58:28;5.00;;;4.47;;
25988;SDS011;13778;48.236;9.894;2023-05-07T10:01:18;4.85;;;4.43;;
25988;SDS011;13778;48.236;9.894;2023-05-07T10:04:11;6.30;;;4.10;;
25988;SDS011;13778;48.236;9.894;2023-05-07T10:07:02;4.75;;;4.25;;
25988;SDS011;13778;48.236;9.894;2023-05-07T10:09:53;4.82;;;3.92;;
25988;SDS011;13778;48.236;9.894;2023-05-07T10:12:45;8.88;;;4.68;;
25988;SDS011;13778;48.236;9.894;2023-05-07T10:15:36;3.88;;;3.47;;
25988;SDS011;13778;48.236;9.894;2023-05-07T10:18:27;4.50;;;3.60;;
25988;SDS011;13778;48.236;9.894;2023-05-07T10:21:19;6.07;;;3.35;;
25988;SDS011;13778;48.236;9.894;2023-05-07T10:24:12;3.95;;;3.33;;
25988;SDS011;13778;48.236;9.894;2023-05-07T10:27:04;7.22;;;3.53;;
25988;SDS011;13778;48.236;9.894;2023-05-07T10:30:00;4.00;;;3.60;;
25988;SDS011;13778;48.236;9.894;2023-05-07T10:32:53;7.45;;;3.97;;
25988;SDS011;13778;48.236;9.894;2023-05-07T10:35:45;5.38;;;4.07;;
25988;SDS011;13778;48.236;9.894;2023-05-07T10:38:36;5.50;;;3.33;;
25988;SDS011;13778;48.236;9.894;2023-05-07T10:41:27;5.00;;;3.63;;
25988;SDS011;13778;48.236;9.894;2023-05-07T10:44:24;7.18;;;3.38;;
25988;SDS011;13778;48.236;9.894;2023-05-07T10:47:16;6.38;;;3.10;;
25988;SDS011;13778;48.236;9.894;2023-05-07T10:50:20;3.15;;;2.85;;
25988;SDS011;13778;48.236;9.894;2023-05-07T10:53:20;4.25;;;3.13;;
25988;SDS011;13778;48.236;9.894;2023-05-07T10:59:37;3.90;;;3.50;;
25988;SDS011;13778;48.236;9.894;2023-05-07T11:05:38;3.80;;;3.45;;
25988;SDS011;13778;48.236;9.894;2023-05-07T11:08:33;4.55;;;3.63;;
25988;SDS011;13778;48.236;9.894;2023-05-07T11:11:45;4.38;;;3.22;;
25988;SDS011;13778;48.236;9.894;2023-05-07T11:14:42;5.70;;;3.63;;
25988;SDS011;13778;48.236;9.894;2023-05-07T11:17:33;5.10;;;3.03;;
25988;SDS011;13778;48.236;9.894;2023-05-07T11:26:44;4.88;;;3.38;;
25988;SDS011;13778;48.236;9.894;2023-05-07T11:29:35;5.35;;;3.22;;
25988;SDS011;13778;48.236;9.894;2023-05-07T11:32:26;2.85;;;2.65;;
25988;SDS011;13778;48.236;9.894;2023-05-07T11:35:16;4.22;;;2.28;;
25988;SDS011;13778;48.236;9.894;2023-05-07T11:38:07;2.92;;;2.65;;
25988;SDS011;13778;48.236;9.894;2023-05-07T11:40:59;4.07;;;2.72;;
25988;SDS011;13778;48.236;9.894;2023-05-07T11:43:57;2.83;;;2.50;;
25988;SDS011;13778;48.236;9.894;2023-05-07T11:46:48;4.53;;;2.47;;
25988;SDS011;13778;48.236;9.894;2023-05-07T11:49:39;3.17;;;2.47;;
25988;SDS011;13778;48.236;9.894;2023-05-07T11:52:29;3.65;;;3.03;;
25988;SDS011;13778;48.236;9.894;2023-05-07T11:55:20;3.53;;;2.45;;
25988;SDS011;13778;48.236;9.894;2023-05-07T11:58:12;3.13;;;2.83;;
25988;SDS011;13778;48.236;9.894;2023-05-07T12:01:04;3.92;;;3.08;;
25988;SDS011;13778;48.236;9.894;2023-05-07T12:03:57;3.42;;;3.13;;
25988;SDS011;13778;48.236;9.894;2023-05-07T12:06:47;2.90;;;2.50;;
25988;SDS011;13778;48.236;9.894;2023-05-07T12:09:40;3.13;;;2.53;;
25988;SDS011;13778;48.236;9.894;2023-05-07T12:12:30;5.60;;;3.40;;
25988;SDS011;13778;48.236;9.894;2023-05-07T12:15:22;4.18;;;2.80;;
25988;SDS011;13778;48.236;9.894;2023-05-07T12:18:14;3.53;;;2.95;;
25988;SDS011;13778;48.236;9.894;2023-05-07T12:21:05;4.43;;;3.10;;
25988;SDS011;13778;48.236;9.894;2023-05-07T12:26:46;6.53;;;2.92;;
25988;SDS011;13778;48.236;9.894;2023-05-07T12:29:37;2.67;;;2.15;;
25988;SDS011;13778;48.236;9.894;2023-05-07T12:32:28;3.63;;;2.42;;
25988;SDS011;13778;48.236;9.894;2023-05-07T12:35:27;2.35;;;2.15;;
25988;SDS011;13778;48.236;9.894;2023-05-07T12:38:17;5.47;;;3.20;;
25988;SDS011;13778;48.236;9.894;2023-05-07T12:41:08;4.30;;;2.97;;
25988;SDS011;13778;48.236;9.894;2023-05-07T12:43:59;4.05;;;2.67;;
25988;SDS011;13778;48.236;9.894;2023-05-07T12:46:50;3.53;;;2.47;;
25988;SDS011;13778;48.236;9.894;2023-05-07T12:49:40;5.20;;;3.22;;
25988;SDS011;13778;48.236;9.894;2023-05-07T12:52:32;5.35;;;2.55;;
25988;SDS011;13778;48.236;9.894;2023-05-07T12:55:23;3.75;;;2.58;;
25988;SDS011;13778;48.236;9.894;2023-05-07T12:58:16;3.97;;;2.33;;
25988;SDS011;13778;48.236;9.894;2023-05-07T13:01:07;2.63;;;2.13;;
25988;SDS011;13778;48.236;9.894;2023-05-07T13:04:00;2.63;;;2.40;;
25988;SDS011;13778;48.236;9.894;2023-05-07T13:06:50;3.10;;;2.80;;
25988;SDS011;13778;48.236;9.894;2023-05-07T13:09:42;2.80;;;2.30;;
25988;SDS011;13778;48.236;9.894;2023-05-07T13:15:22;2.47;;;2.28;;
25988;SDS011;13778;48.236;9.894;2023-05-07T13:18:13;2.75;;;2.47;;
25988;SDS011;13778;48.236;9.894;2023-05-07T13:21:03;4.82;;;2.60;;
25988;SDS011;13778;48.236;9.894;2023-05-07T13:23:54;4.13;;;2.00;;
25988;SDS011;13778;48.236;9.894;2023-05-07T13:26:46;3.38;;;2.35;;
25988;SDS011;13778;48.236;9.894;2023-05-07T13:29:37;3.25;;;2.22;;
25988;SDS011;13778;48.236;9.894;2023-05-07T13:32:27;5.13;;;2.40;;
25988;SDS011;13778;48.236;9.894;2023-05-07T13:35:18;6.13;;;2.65;;
25988;SDS011;13778;48.236;9.894;2023-05-07T13:38:08;4.40;;;2.15;;
25988;SDS011;13778;48.236;9.894;2023-05-07T13:40:59;3.00;;;2.30;;
25988;SDS011;13778;48.236;9.894;2023-05-07T13:43:50;4.72;;;2.20;;
25988;SDS011;13778;48.236;9.894;2023-05-07T13:49:31;2.95;;;2.17;;
25988;SDS011;13778;48.236;9.894;2023-05-07T13:52:21;3.42;;;2.40;;
25988;SDS011;13778;48.236;9.894;2023-05-07T13:55:12;3.03;;;2.33;;
25988;SDS011;13778;48.236;9.894;2023-05-07T13:58:02;4.28;;;2.30;;
25988;SDS011;13778;48.236;9.894;2023-05-07T14:00:54;2.38;;;2.13;;
25988;SDS011;13778;48.236;9.894;2023-05-07T14:03:46;5.43;;;2.28;;
25988;SDS011;13778;48.236;9.894;2023-05-07T14:06:37;6.50;;;2.30;;
25988;SDS011;13778;48.236;9.894;2023-05-07T14:09:28;3.05;;;2.17;;
25988;SDS011;13778;48.236;9.894;2023-05-07T14:12:18;3.67;;;2.33;;
25988;SDS011;13778;48.236;9.894;2023-05-07T14:15:09;2.50;;;2.28;;
25988;SDS011;13778;48.236;9.894;2023-05-07T14:18:01;3.05;;;2.58;;
25988;SDS011;13778;48.236;9.894;2023-05-07T14:20:51;4.30;;;2.92;;
25988;SDS011;13778;48.236;9.894;2023-05-07T14:23:42;4.63;;;2.50;;
25988;SDS011;13778;48.236;9.894;2023-05-07T14:26:32;4.95;;;2.53;;
25988;SDS011;13778;48.236;9.894;2023-05-07T14:29:22;2.28;;;2.08;;
25988;SDS011;13778;48.236;9.894;2023-05-07T14:32:13;6.45;;;2.40;;
25988;SDS011;13778;48.236;9.894;2023-05-07T14:35:06;6.53;;;2.47;;
25988;SDS011;13778;48.236;9.894;2023-05-07T14:37:56;4.32;;;2.63;;
25988;SDS011;13778;48.236;9.894;2023-05-07T14:40:46;3.03;;;2.58;;
25988;SDS011;13778;48.236;9.894;2023-05-07T14:43:37;2.75;;;2.30;;
25988;SDS011;13778;48.236;9.894;2023-05-07T14:46:28;3.78;;;2.40;;
25988;SDS011;13778;48.236;9.894;2023-05-07T14:49:18;3.83;;;2.08;;
25988;SDS011;13778;48.236;9.894;2023-05-07T14:52:10;2.25;;;2.05;;
25988;SDS011;13778;48.236;9.894;2023-05-07T14:55:01;3.40;;;2.40;;
25988;SDS011;13778;48.236;9.894;2023-05-07T14:57:51;3.00;;;2.08;;
25988;SDS011;13778;48.236;9.894;2023-05-07T15:00:42;3.85;;;2.30;;
25988;SDS011;13778;48.236;9.894;2023-05-07T15:03:32;5.70;;;2.90;;
25988;SDS011;13778;48.236;9.894;2023-05-07T15:06:35;7.97;;;3.85;;
25988;SDS011;13778;48.236;9.894;2023-05-07T15:09:27;2.75;;;2.53;;
25988;SDS011;13778;48.236;9.894;2023-05-07T15:15:08;3.35;;;2.35;;
25988;SDS011;13778;48.236;9.894;2023-05-07T15:17:58;3.43;;;2.60;;
25988;SDS011;13778;48.236;9.894;2023-05-07T15:20:49;2.87;;;2.33;;
25988;SDS011;13778;48.236;9.894;2023-05-07T15:23:39;5.35;;;2.10;;
25988;SDS011;13778;48.236;9.894;2023-05-07T15:26:32;7.00;;;2.22;;
25988;SDS011;13778;48.236;9.894;2023-05-07T15:32:13;3.53;;;2.10;;
25988;SDS011;13778;48.236;9.894;2023-05-07T15:35:04;2.70;;;2.00;;
25988;SDS011;13778;48.236;9.894;2023-05-07T15:37:55;3.10;;;2.00;;
25988;SDS011;13778;48.236;9.894;2023-05-07T15:40:46;6.50;;;1.77;;
25988;SDS011;13778;48.236;9.894;2023-05-07T15:43:42;3.60;;;1.65;;
25988;SDS011;13778;48.236;9.894;2023-05-07T15:46:33;7.70;;;1.85;;
25988;SDS011;13778;48.236;9.894;2023-05-07T15:49:23;2.13;;;1.50;;
25988;SDS011;13778;48.236;9.894;2023-05-07T15:52:14;12.07;;;3.80;;
25988;SDS011;13778;48.236;9.894;2023-05-07T15:55:05;12.23;;;3.10;;
25988;SDS011;13778;48.236;9.894;2023-05-07T15:57:57;9.40;;;2.70;;
25988;SDS011;13778;48.236;9.894;2023-05-07T16:00:49;8.77;;;2.83;;
25988;SDS011;13778;48.236;9.894;2023-05-07T16:03:40;7.03;;;2.20;;
25988;SDS011;13778;48.236;9.894;2023-05-07T16:06:30;7.55;;;2.67;;
25988;SDS011;13778;48.236;9.894;2023-05-07T16:09:20;4.35;;;2.08;;
25988;SDS011;13778;48.236;9.894;2023-05-07T16:12:12;5.40;;;1.95;;
25988;SDS011;13778;48.236;9.894;2023-05-07T16:15:03;5.45;;;1.75;;
25988;SDS011;13778;48.236;9.894;2023-05-07T16:17:55;11.07;;;6.20;;
25988;SDS011;13778;48.236;9.894;2023-05-07T16:20:45;7.70;;;2.78;;
25988;SDS011;13778;48.236;9.894;2023-05-07T16:23:36;5.20;;;3.40;;
25988;SDS011;13778;48.236;9.894;2023-05-07T16:26:27;8.18;;;3.25;;
25988;SDS011;13778;48.236;9.894;2023-05-07T16:29:17;4.78;;;2.80;;
25988;SDS011;13778;48.236;9.894;2023-05-07T16:32:08;4.75;;;3.42;;
25988;SDS011;13778;48.236;9.894;2023-05-07T16:35:00;8.27;;;3.92;;
25988;SDS011;13778;48.236;9.894;2023-05-07T16:37:51;8.25;;;4.00;;
25988;SDS011;13778;48.236;9.894;2023-05-07T16:40:41;7.10;;;4.03;;
25988;SDS011;13778;48.236;9.894;2023-05-07T16:43:32;5.60;;;3.35;;
25988;SDS011;13778;48.236;9.894;2023-05-07T16:46:22;6.45;;;3.70;;
25988;SDS011;13778;48.236;9.894;2023-05-07T16:49:12;4.20;;;3.60;;
25988;SDS011;13778;48.236;9.894;2023-05-07T16:52:04;8.35;;;3.33;;
25988;SDS011;13778;48.236;9.894;2023-05-07T16:54:55;9.27;;;3.78;;
25988;SDS011;13778;48.236;9.894;2023-05-07T16:57:48;4.20;;;3.83;;
25988;SDS011;13778;48.236;9.894;2023-05-07T17:00:38;5.65;;;3.95;;
25988;SDS011;13778;48.236;9.894;2023-05-07T17:03:29;8.20;;;4.10;;
25988;SDS011;13778;48.236;9.894;2023-05-07T17:06:19;7.80;;;4.18;;
25988;SDS011;13778;48.236;9.894;2023-05-07T17:09:11;9.40;;;5.00;;
25988;SDS011;13778;48.236;9.894;2023-05-07T17:12:02;8.55;;;5.43;;
25988;SDS011;13778;48.236;9.894;2023-05-07T17:14:52;6.25;;;4.47;;
25988;SDS011;13778;48.236;9.894;2023-05-07T17:17:42;5.57;;;4.90;;
25988;SDS011;13778;48.236;9.894;2023-05-07T17:20:33;8.20;;;5.13;;
25988;SDS011;13778;48.236;9.894;2023-05-07T17:23:24;4.57;;;4.15;;
25988;SDS011;13778;48.236;9.894;2023-05-07T17:26:15;5.25;;;4.63;;
25988;SDS011;13778;48.236;9.894;2023-05-07T17:31:56;6.47;;;4.32;;
25988;SDS011;13778;48.236;9.894;2023-05-07T17:34:46;5.13;;;4.63;;
25988;SDS011;13778;48.236;9.894;2023-05-07T17:37:37;6.38;;;4.43;;
25988;SDS011;13778;48.236;9.894;2023-05-07T17:40:27;4.85;;;4.07;;
25988;SDS011;13778;48.236;9.894;2023-05-07T17:43:19;6.20;;;4.13;;
25988;SDS011;13778;48.236;9.894;2023-05-07T17:46:11;4.50;;;4.10;;
25988;SDS011;13778;48.236;9.894;2023-05-07T17:49:01;7.88;;;3.80;;
25988;SDS011;13778;48.236;9.894;2023-05-07T17:51:52;3.95;;;3.40;;
25988;SDS011;13778;48.236;9.894;2023-05-07T17:54:42;7.22;;;3.65;;
25988;SDS011;13778;48.236;9.894;2023-05-07T17:57:33;6.57;;;3.63;;
25988;SDS011;13778;48.236;9.894;2023-05-07T18:03:17;6.13;;;3.15;;
25988;SDS011;13778;48.236;9.894;2023-05-07T18:08:57;4.97;;;2.53;;
25988;SDS011;13778;48.236;9.894;2023-05-07T18:11:48;2.95;;;2.50;;